Etusivu
METAR-TAF:

METAR-TAF

Lentoasemat :

Friedman Memorial Airport

Hailey, Idaho, Yhdysvallat

Leveyspiiri: 43-30N, Pituuspiiri: 114-18W, korkeus merenpinnasta: 1620 m

Tämänhetkinen sää

Tämä raportti tehtiin 39 minuuttia sitten, kello 23.53 UTC
Tuuli 9 kn kaakosta
Lämpötila 1°C
Kosteus 64%
Ilmanpaine 1018 hPa
Näkyvyys: 16.1 km
selkeää

METAR: KSUN 222353Z 13009KT 10SM SKC 01/M05 A3007

Aika: 17:32 (00:32 UTC)

Sääennuste

Tämä raportti tehtiin 1 tunti ja 11 minuuttia sitten, kello 23.21 UTC
Ennuste voimassa 23. päivästä klo 00 UTC - 24. päivään klo 06 UTC
Tuuli 6 kn eri suunnista
Näkyvyys: 10 km
selkeää
From 23. päivästä klo 0300 UTC
Tuuli 8 kn luoteesta
Näkyvyys: 10 km
Muutamia pilviä 14000 ft:n korkeudessa
From 23. päivästä klo 1900 UTC
Tuuli 11 kn kaakosta
Näkyvyys: 10 km
Hajanaisia pilviä 13000 ft:n korkeudessa

TAF: KSUN 222321Z 2300/2406 VRB06KT P6SM SKC FM230300 31008KT P6SM FEW140 FM231900 13011KT P6SM SCT130 AMD LTD TO CLD VIS AND WIND 2306/2314

Säähavainnot ja -ennusteet yli 4000 lentoasemalta (METAR- ja TAF-raportit).

Käytössä olevat sääasemat on merkitty karttaan keltaisilla ja punaisilla pisteillä.

Aseta hiiri pisteen päälle nähdäksesi sääaseman nimen.

Klikkaa sitten nähdäksesi säähavainnot ja -ennusteet.

Kartan vaihtaminen: klikkaa mustalla rastilla varustettuja vihreitä pisteitä, niin voit zoomata sisään; viivalla varustettua vihreää pistettä, niin voit zoomata ulos tai vihreitä nuolia, niin pääset viereisille kartoille.


METAR-TAF: